sensor_id;sensor_type;location;lat;lon;timestamp;P1;durP1;ratioP1;P2;durP2;ratioP2
16820;SDS011;8527;49.740;6.604;2023-04-06T00:02:19;15.68;;;5.88;;
16820;SDS011;8527;49.740;6.604;2023-04-06T00:07:17;13.15;;;5.63;;
16820;SDS011;8527;49.740;6.604;2023-04-06T00:12:16;12.10;;;5.55;;
16820;SDS011;8527;49.740;6.604;2023-04-06T00:17:20;10.70;;;5.28;;
16820;SDS011;8527;49.740;6.604;2023-04-06T00:22:21;15.25;;;5.82;;
16820;SDS011;8527;49.740;6.604;2023-04-06T00:27:23;14.02;;;6.28;;
16820;SDS011;8527;49.740;6.604;2023-04-06T00:32:28;19.98;;;6.18;;
16820;SDS011;8527;49.740;6.604;2023-04-06T00:37:26;14.20;;;5.63;;
16820;SDS011;8527;49.740;6.604;2023-04-06T00:42:32;13.25;;;6.03;;
16820;SDS011;8527;49.740;6.604;2023-04-06T00:47:34;13.75;;;6.43;;
16820;SDS011;8527;49.740;6.604;2023-04-06T00:52:36;13.00;;;6.25;;
16820;SDS011;8527;49.740;6.604;2023-04-06T00:57:38;14.00;;;6.38;;
16820;SDS011;8527;49.740;6.604;2023-04-06T01:02:40;17.92;;;7.03;;
16820;SDS011;8527;49.740;6.604;2023-04-06T01:07:40;12.23;;;6.93;;
16820;SDS011;8527;49.740;6.604;2023-04-06T01:12:42;15.50;;;7.05;;
16820;SDS011;8527;49.740;6.604;2023-04-06T01:17:56;14.48;;;7.10;;
16820;SDS011;8527;49.740;6.604;2023-04-06T01:23:00;15.80;;;7.28;;
16820;SDS011;8527;49.740;6.604;2023-04-06T01:28:10;14.77;;;6.38;;
16820;SDS011;8527;49.740;6.604;2023-04-06T01:33:11;15.60;;;6.93;;
16820;SDS011;8527;49.740;6.604;2023-04-06T01:38:16;16.17;;;7.13;;
16820;SDS011;8527;49.740;6.604;2023-04-06T01:43:21;14.07;;;6.50;;
16820;SDS011;8527;49.740;6.604;2023-04-06T01:48:23;15.20;;;6.43;;
16820;SDS011;8527;49.740;6.604;2023-04-06T01:53:24;12.85;;;6.38;;
16820;SDS011;8527;49.740;6.604;2023-04-06T01:58:28;15.73;;;6.72;;
16820;SDS011;8527;49.740;6.604;2023-04-06T02:03:27;12.45;;;6.38;;
16820;SDS011;8527;49.740;6.604;2023-04-06T02:08:29;13.77;;;6.22;;
16820;SDS011;8527;49.740;6.604;2023-04-06T02:13:27;14.25;;;6.57;;
16820;SDS011;8527;49.740;6.604;2023-04-06T02:18:26;11.20;;;6.20;;
16820;SDS011;8527;49.740;6.604;2023-04-06T02:23:24;12.93;;;6.45;;
16820;SDS011;8527;49.740;6.604;2023-04-06T02:28:26;14.93;;;6.63;;
16820;SDS011;8527;49.740;6.604;2023-04-06T02:33:30;22.67;;;6.80;;
16820;SDS011;8527;49.740;6.604;2023-04-06T02:38:32;13.50;;;6.85;;
16820;SDS011;8527;49.740;6.604;2023-04-06T02:43:33;14.55;;;6.90;;
16820;SDS011;8527;49.740;6.604;2023-04-06T02:48:32;13.50;;;6.53;;
16820;SDS011;8527;49.740;6.604;2023-04-06T02:53:31;17.85;;;6.63;;
16820;SDS011;8527;49.740;6.604;2023-04-06T02:58:35;14.95;;;7.10;;
16820;SDS011;8527;49.740;6.604;2023-04-06T03:03:40;15.07;;;6.90;;
16820;SDS011;8527;49.740;6.604;2023-04-06T03:08:39;19.02;;;7.00;;
16820;SDS011;8527;49.740;6.604;2023-04-06T03:13:41;16.83;;;7.10;;
16820;SDS011;8527;49.740;6.604;2023-04-06T03:18:39;16.67;;;7.30;;
16820;SDS011;8527;49.740;6.604;2023-04-06T03:23:39;11.07;;;6.15;;
16820;SDS011;8527;49.740;6.604;2023-04-06T03:28:40;19.05;;;6.97;;
16820;SDS011;8527;49.740;6.604;2023-04-06T03:33:44;14.00;;;6.82;;
16820;SDS011;8527;49.740;6.604;2023-04-06T03:38:46;14.25;;;6.75;;
16820;SDS011;8527;49.740;6.604;2023-04-06T03:43:47;13.60;;;6.85;;
16820;SDS011;8527;49.740;6.604;2023-04-06T03:48:58;17.88;;;7.57;;
16820;SDS011;8527;49.740;6.604;2023-04-06T03:54:00;14.90;;;7.30;;
16820;SDS011;8527;49.740;6.604;2023-04-06T03:59:01;16.63;;;7.53;;
16820;SDS011;8527;49.740;6.604;2023-04-06T04:03:59;16.67;;;8.02;;
16820;SDS011;8527;49.740;6.604;2023-04-06T04:09:04;15.50;;;7.30;;
16820;SDS011;8527;49.740;6.604;2023-04-06T04:14:06;14.23;;;7.30;;
16820;SDS011;8527;49.740;6.604;2023-04-06T04:19:04;23.38;;;7.85;;
16820;SDS011;8527;49.740;6.604;2023-04-06T04:24:06;18.50;;;7.95;;
16820;SDS011;8527;49.740;6.604;2023-04-06T04:29:08;20.50;;;8.07;;
16820;SDS011;8527;49.740;6.604;2023-04-06T04:34:07;18.02;;;8.00;;
16820;SDS011;8527;49.740;6.604;2023-04-06T04:39:05;16.23;;;7.95;;
16820;SDS011;8527;49.740;6.604;2023-04-06T04:44:09;19.63;;;8.65;;
16820;SDS011;8527;49.740;6.604;2023-04-06T04:49:08;24.45;;;11.43;;
16820;SDS011;8527;49.740;6.604;2023-04-06T04:54:09;25.73;;;10.00;;
16820;SDS011;8527;49.740;6.604;2023-04-06T04:59:11;23.27;;;11.30;;
16820;SDS011;8527;49.740;6.604;2023-04-06T05:04:11;26.67;;;9.57;;
16820;SDS011;8527;49.740;6.604;2023-04-06T05:09:10;24.40;;;11.25;;
16820;SDS011;8527;49.740;6.604;2023-04-06T05:14:11;23.15;;;11.07;;
16820;SDS011;8527;49.740;6.604;2023-04-06T05:19:10;22.45;;;10.52;;
16820;SDS011;8527;49.740;6.604;2023-04-06T05:24:08;19.17;;;9.27;;
16820;SDS011;8527;49.740;6.604;2023-04-06T05:29:07;25.55;;;10.73;;
16820;SDS011;8527;49.740;6.604;2023-04-06T05:34:12;24.23;;;12.15;;
16820;SDS011;8527;49.740;6.604;2023-04-06T05:39:11;29.92;;;12.20;;
16820;SDS011;8527;49.740;6.604;2023-04-06T05:44:13;30.85;;;12.88;;
16820;SDS011;8527;49.740;6.604;2023-04-06T05:49:12;34.53;;;13.60;;
16820;SDS011;8527;49.740;6.604;2023-04-06T05:54:10;29.00;;;11.70;;
16820;SDS011;8527;49.740;6.604;2023-04-06T05:59:09;31.13;;;13.40;;
16820;SDS011;8527;49.740;6.604;2023-04-06T06:04:15;43.60;;;15.80;;
16820;SDS011;8527;49.740;6.604;2023-04-06T06:09:14;32.97;;;13.55;;
16820;SDS011;8527;49.740;6.604;2023-04-06T06:14:15;65.20;;;18.27;;
16820;SDS011;8527;49.740;6.604;2023-04-06T06:19:15;28.40;;;12.23;;
16820;SDS011;8527;49.740;6.604;2023-04-06T06:24:23;27.98;;;11.63;;
16820;SDS011;8527;49.740;6.604;2023-04-06T06:29:28;29.80;;;11.32;;
16820;SDS011;8527;49.740;6.604;2023-04-06T06:34:30;31.05;;;12.02;;
16820;SDS011;8527;49.740;6.604;2023-04-06T06:39:31;26.13;;;11.85;;
16820;SDS011;8527;49.740;6.604;2023-04-06T06:44:38;28.35;;;11.30;;
16820;SDS011;8527;49.740;6.604;2023-04-06T06:49:40;23.35;;;11.68;;
16820;SDS011;8527;49.740;6.604;2023-04-06T06:54:43;27.08;;;10.93;;
16820;SDS011;8527;49.740;6.604;2023-04-06T06:59:44;27.38;;;11.00;;
16820;SDS011;8527;49.740;6.604;2023-04-06T07:04:43;28.30;;;13.85;;
16820;SDS011;8527;49.740;6.604;2023-04-06T07:09:41;26.05;;;10.40;;
16820;SDS011;8527;49.740;6.604;2023-04-06T07:14:46;30.23;;;10.63;;
16820;SDS011;8527;49.740;6.604;2023-04-06T07:19:47;21.10;;;10.43;;
16820;SDS011;8527;49.740;6.604;2023-04-06T07:24:49;30.25;;;12.52;;
16820;SDS011;8527;49.740;6.604;2023-04-06T07:29:53;21.70;;;10.50;;
16820;SDS011;8527;49.740;6.604;2023-04-06T07:34:53;20.77;;;10.32;;
16820;SDS011;8527;49.740;6.604;2023-04-06T07:39:52;21.52;;;10.75;;
16820;SDS011;8527;49.740;6.604;2023-04-06T07:44:55;26.65;;;10.35;;
16820;SDS011;8527;49.740;6.604;2023-04-06T07:49:54;25.63;;;10.18;;
16820;SDS011;8527;49.740;6.604;2023-04-06T07:54:53;24.23;;;11.00;;
16820;SDS011;8527;49.740;6.604;2023-04-06T07:59:52;26.10;;;11.27;;
16820;SDS011;8527;49.740;6.604;2023-04-06T08:04:53;21.52;;;10.27;;
16820;SDS011;8527;49.740;6.604;2023-04-06T08:09:52;21.02;;;10.57;;
16820;SDS011;8527;49.740;6.604;2023-04-06T08:14:55;22.80;;;10.30;;
16820;SDS011;8527;49.740;6.604;2023-04-06T08:19:57;17.90;;;9.15;;
16820;SDS011;8527;49.740;6.604;2023-04-06T08:25:00;19.25;;;9.85;;
16820;SDS011;8527;49.740;6.604;2023-04-06T08:29:59;18.88;;;8.63;;
16820;SDS011;8527;49.740;6.604;2023-04-06T08:35:00;20.60;;;8.35;;
16820;SDS011;8527;49.740;6.604;2023-04-06T08:39:59;19.60;;;8.20;;
16820;SDS011;8527;49.740;6.604;2023-04-06T08:45:00;16.10;;;8.02;;
16820;SDS011;8527;49.740;6.604;2023-04-06T08:50:05;17.23;;;7.65;;
16820;SDS011;8527;49.740;6.604;2023-04-06T08:55:06;17.48;;;8.02;;
16820;SDS011;8527;49.740;6.604;2023-04-06T09:00:06;16.75;;;8.13;;
16820;SDS011;8527;49.740;6.604;2023-04-06T09:05:13;17.50;;;7.45;;
16820;SDS011;8527;49.740;6.604;2023-04-06T09:10:12;14.85;;;7.65;;
16820;SDS011;8527;49.740;6.604;2023-04-06T09:15:17;18.05;;;7.60;;
16820;SDS011;8527;49.740;6.604;2023-04-06T09:20:24;15.10;;;7.78;;
16820;SDS011;8527;49.740;6.604;2023-04-06T09:25:24;19.27;;;7.50;;
16820;SDS011;8527;49.740;6.604;2023-04-06T09:30:23;15.65;;;8.02;;
16820;SDS011;8527;49.740;6.604;2023-04-06T09:35:27;13.02;;;7.22;;
16820;SDS011;8527;49.740;6.604;2023-04-06T09:40:26;16.63;;;7.60;;
16820;SDS011;8527;49.740;6.604;2023-04-06T09:45:25;12.55;;;7.13;;
16820;SDS011;8527;49.740;6.604;2023-04-06T09:50:29;14.23;;;7.13;;
16820;SDS011;8527;49.740;6.604;2023-04-06T09:55:34;17.00;;;7.20;;
16820;SDS011;8527;49.740;6.604;2023-04-06T10:00:40;19.98;;;7.07;;
16820;SDS011;8527;49.740;6.604;2023-04-06T10:05:46;20.90;;;8.93;;
16820;SDS011;8527;49.740;6.604;2023-04-06T10:10:48;17.02;;;7.65;;
16820;SDS011;8527;49.740;6.604;2023-04-06T10:15:52;20.30;;;7.70;;
16820;SDS011;8527;49.740;6.604;2023-04-06T10:20:57;14.48;;;6.70;;
16820;SDS011;8527;49.740;6.604;2023-04-06T10:25:59;15.63;;;7.32;;
16820;SDS011;8527;49.740;6.604;2023-04-06T10:31:04;15.82;;;6.82;;
16820;SDS011;8527;49.740;6.604;2023-04-06T10:36:13;14.77;;;6.80;;
16820;SDS011;8527;49.740;6.604;2023-04-06T10:41:16;14.27;;;6.65;;
16820;SDS011;8527;49.740;6.604;2023-04-06T10:46:15;14.63;;;7.47;;
16820;SDS011;8527;49.740;6.604;2023-04-06T10:51:27;17.10;;;7.47;;
16820;SDS011;8527;49.740;6.604;2023-04-06T10:56:29;14.48;;;6.93;;
16820;SDS011;8527;49.740;6.604;2023-04-06T11:01:30;16.15;;;7.32;;
16820;SDS011;8527;49.740;6.604;2023-04-06T11:06:31;18.23;;;7.72;;
16820;SDS011;8527;49.740;6.604;2023-04-06T11:11:30;15.48;;;7.03;;
16820;SDS011;8527;49.740;6.604;2023-04-06T11:16:36;14.38;;;7.22;;
16820;SDS011;8527;49.740;6.604;2023-04-06T11:21:38;13.18;;;6.60;;
16820;SDS011;8527;49.740;6.604;2023-04-06T11:26:39;19.08;;;6.97;;
16820;SDS011;8527;49.740;6.604;2023-04-06T11:31:39;15.27;;;7.53;;
16820;SDS011;8527;49.740;6.604;2023-04-06T11:36:44;14.70;;;6.72;;
16820;SDS011;8527;49.740;6.604;2023-04-06T11:41:47;16.73;;;7.05;;
16820;SDS011;8527;49.740;6.604;2023-04-06T11:46:51;15.82;;;6.85;;
16820;SDS011;8527;49.740;6.604;2023-04-06T11:51:52;13.02;;;6.95;;
16820;SDS011;8527;49.740;6.604;2023-04-06T11:56:51;11.68;;;6.20;;
16820;SDS011;8527;49.740;6.604;2023-04-06T12:01:52;12.63;;;6.85;;
16820;SDS011;8527;49.740;6.604;2023-04-06T12:06:53;12.80;;;6.53;;
16820;SDS011;8527;49.740;6.604;2023-04-06T12:11:52;14.43;;;6.25;;
16820;SDS011;8527;49.740;6.604;2023-04-06T12:16:51;14.07;;;6.38;;
16820;SDS011;8527;49.740;6.604;2023-04-06T12:21:55;14.60;;;6.10;;
16820;SDS011;8527;49.740;6.604;2023-04-06T12:26:54;10.32;;;5.97;;
16820;SDS011;8527;49.740;6.604;2023-04-06T12:31:53;11.00;;;5.53;;
16820;SDS011;8527;49.740;6.604;2023-04-06T12:36:54;11.00;;;4.85;;
16820;SDS011;8527;49.740;6.604;2023-04-06T12:41:56;13.93;;;6.00;;
16820;SDS011;8527;49.740;6.604;2023-04-06T12:46:55;11.30;;;5.88;;
16820;SDS011;8527;49.740;6.604;2023-04-06T12:51:56;14.77;;;5.93;;
16820;SDS011;8527;49.740;6.604;2023-04-06T12:56:55;11.15;;;6.25;;
16820;SDS011;8527;49.740;6.604;2023-04-06T13:01:56;12.07;;;6.20;;
16820;SDS011;8527;49.740;6.604;2023-04-06T13:06:57;12.13;;;6.65;;
16820;SDS011;8527;49.740;6.604;2023-04-06T13:11:59;15.93;;;6.32;;
16820;SDS011;8527;49.740;6.604;2023-04-06T13:16:59;12.02;;;6.38;;
16820;SDS011;8527;49.740;6.604;2023-04-06T13:22:00;10.55;;;6.03;;
16820;SDS011;8527;49.740;6.604;2023-04-06T13:26:58;10.18;;;6.03;;
16820;SDS011;8527;49.740;6.604;2023-04-06T13:31:57;13.93;;;6.18;;
16820;SDS011;8527;49.740;6.604;2023-04-06T13:36:56;11.13;;;5.88;;
16820;SDS011;8527;49.740;6.604;2023-04-06T13:41:58;10.90;;;6.13;;
16820;SDS011;8527;49.740;6.604;2023-04-06T13:46:59;10.45;;;5.30;;
16820;SDS011;8527;49.740;6.604;2023-04-06T13:52:00;10.10;;;5.30;;
16820;SDS011;8527;49.740;6.604;2023-04-06T13:56:59;10.45;;;5.68;;
16820;SDS011;8527;49.740;6.604;2023-04-06T14:02:02;9.35;;;5.18;;
16820;SDS011;8527;49.740;6.604;2023-04-06T14:07:07;13.40;;;5.57;;
16820;SDS011;8527;49.740;6.604;2023-04-06T14:12:08;10.95;;;6.10;;
16820;SDS011;8527;49.740;6.604;2023-04-06T14:17:07;7.30;;;5.10;;
16820;SDS011;8527;49.740;6.604;2023-04-06T14:22:08;9.55;;;5.20;;
16820;SDS011;8527;49.740;6.604;2023-04-06T14:27:06;8.63;;;5.65;;
16820;SDS011;8527;49.740;6.604;2023-04-06T14:32:11;7.88;;;4.70;;
16820;SDS011;8527;49.740;6.604;2023-04-06T14:37:15;10.55;;;5.47;;
16820;SDS011;8527;49.740;6.604;2023-04-06T14:42:17;6.70;;;3.72;;
16820;SDS011;8527;49.740;6.604;2023-04-06T14:47:15;6.03;;;3.80;;
16820;SDS011;8527;49.740;6.604;2023-04-06T14:52:18;6.40;;;3.92;;
16820;SDS011;8527;49.740;6.604;2023-04-06T14:57:17;7.57;;;4.03;;
16820;SDS011;8527;49.740;6.604;2023-04-06T15:02:17;7.05;;;4.53;;
16820;SDS011;8527;49.740;6.604;2023-04-06T15:07:24;6.20;;;3.88;;
16820;SDS011;8527;49.740;6.604;2023-04-06T15:12:23;6.65;;;4.28;;
16820;SDS011;8527;49.740;6.604;2023-04-06T15:17:25;8.45;;;4.75;;
16820;SDS011;8527;49.740;6.604;2023-04-06T15:22:28;8.30;;;4.38;;
16820;SDS011;8527;49.740;6.604;2023-04-06T15:27:27;7.47;;;4.18;;
16820;SDS011;8527;49.740;6.604;2023-04-06T15:32:26;8.40;;;4.68;;
16820;SDS011;8527;49.740;6.604;2023-04-06T15:37:32;9.52;;;5.72;;
16820;SDS011;8527;49.740;6.604;2023-04-06T15:42:31;8.43;;;4.97;;
16820;SDS011;8527;49.740;6.604;2023-04-06T15:47:30;7.20;;;4.82;;
16820;SDS011;8527;49.740;6.604;2023-04-06T15:52:28;8.85;;;5.18;;
16820;SDS011;8527;49.740;6.604;2023-04-06T15:57:29;8.70;;;4.97;;
16820;SDS011;8527;49.740;6.604;2023-04-06T16:02:28;10.77;;;5.25;;
16820;SDS011;8527;49.740;6.604;2023-04-06T16:07:28;8.73;;;4.85;;
16820;SDS011;8527;49.740;6.604;2023-04-06T16:12:29;9.20;;;5.55;;
16820;SDS011;8527;49.740;6.604;2023-04-06T16:17:30;10.25;;;5.47;;
16820;SDS011;8527;49.740;6.604;2023-04-06T16:22:31;10.68;;;5.65;;
16820;SDS011;8527;49.740;6.604;2023-04-06T16:27:33;9.73;;;6.00;;
16820;SDS011;8527;49.740;6.604;2023-04-06T16:32:31;9.27;;;5.75;;
16820;SDS011;8527;49.740;6.604;2023-04-06T16:37:30;10.80;;;5.63;;
16820;SDS011;8527;49.740;6.604;2023-04-06T16:42:29;12.90;;;6.40;;
16820;SDS011;8527;49.740;6.604;2023-04-06T16:47:30;20.92;;;12.05;;
16820;SDS011;8527;49.740;6.604;2023-04-06T16:52:28;11.13;;;6.60;;
16820;SDS011;8527;49.740;6.604;2023-04-06T16:57:28;8.60;;;5.72;;
16820;SDS011;8527;49.740;6.604;2023-04-06T17:02:30;25.10;;;10.48;;
16820;SDS011;8527;49.740;6.604;2023-04-06T17:07:30;12.27;;;6.68;;
16820;SDS011;8527;49.740;6.604;2023-04-06T17:12:30;18.00;;;10.25;;
16820;SDS011;8527;49.740;6.604;2023-04-06T17:17:31;13.98;;;7.43;;
16820;SDS011;8527;49.740;6.604;2023-04-06T17:22:29;12.05;;;7.28;;
16820;SDS011;8527;49.740;6.604;2023-04-06T17:27:28;8.95;;;5.40;;
16820;SDS011;8527;49.740;6.604;2023-04-06T17:32:26;7.45;;;5.47;;
16820;SDS011;8527;49.740;6.604;2023-04-06T17:37:27;8.40;;;5.43;;
16820;SDS011;8527;49.740;6.604;2023-04-06T17:42:26;7.70;;;5.43;;
16820;SDS011;8527;49.740;6.604;2023-04-06T17:47:25;9.50;;;6.32;;
16820;SDS011;8527;49.740;6.604;2023-04-06T17:52:28;10.18;;;5.65;;
16820;SDS011;8527;49.740;6.604;2023-04-06T17:57:27;8.23;;;5.60;;
16820;SDS011;8527;49.740;6.604;2023-04-06T18:02:25;9.63;;;5.72;;
16820;SDS011;8527;49.740;6.604;2023-04-06T18:07:24;8.95;;;5.25;;
16820;SDS011;8527;49.740;6.604;2023-04-06T18:12:29;9.80;;;5.70;;
16820;SDS011;8527;49.740;6.604;2023-04-06T18:17:27;10.18;;;5.75;;
16820;SDS011;8527;49.740;6.604;2023-04-06T18:22:33;26.50;;;12.23;;
16820;SDS011;8527;49.740;6.604;2023-04-06T18:27:35;12.70;;;7.45;;
16820;SDS011;8527;49.740;6.604;2023-04-06T18:32:34;12.32;;;7.10;;
16820;SDS011;8527;49.740;6.604;2023-04-06T18:37:38;10.93;;;5.90;;
16820;SDS011;8527;49.740;6.604;2023-04-06T18:42:36;9.48;;;5.97;;
16820;SDS011;8527;49.740;6.604;2023-04-06T18:47:37;12.48;;;6.85;;
16820;SDS011;8527;49.740;6.604;2023-04-06T18:52:38;12.13;;;6.72;;
16820;SDS011;8527;49.740;6.604;2023-04-06T18:57:39;12.40;;;6.70;;
16820;SDS011;8527;49.740;6.604;2023-04-06T19:02:41;11.15;;;6.47;;
16820;SDS011;8527;49.740;6.604;2023-04-06T19:07:42;9.55;;;6.10;;
16820;SDS011;8527;49.740;6.604;2023-04-06T19:12:46;10.48;;;6.35;;
16820;SDS011;8527;49.740;6.604;2023-04-06T19:17:44;8.60;;;5.75;;
16820;SDS011;8527;49.740;6.604;2023-04-06T19:22:45;10.48;;;6.40;;
16820;SDS011;8527;49.740;6.604;2023-04-06T19:27:44;8.02;;;6.10;;
16820;SDS011;8527;49.740;6.604;2023-04-06T19:32:43;9.57;;;6.35;;
16820;SDS011;8527;49.740;6.604;2023-04-06T19:37:49;8.60;;;6.07;;
16820;SDS011;8527;49.740;6.604;2023-04-06T19:42:50;10.70;;;6.75;;
16820;SDS011;8527;49.740;6.604;2023-04-06T19:47:48;10.98;;;7.03;;
16820;SDS011;8527;49.740;6.604;2023-04-06T19:52:51;10.40;;;6.78;;
16820;SDS011;8527;49.740;6.604;2023-04-06T19:57:53;10.75;;;6.80;;
16820;SDS011;8527;49.740;6.604;2023-04-06T20:02:51;11.27;;;7.38;;
16820;SDS011;8527;49.740;6.604;2023-04-06T20:07:54;9.68;;;6.30;;
16820;SDS011;8527;49.740;6.604;2023-04-06T20:12:55;12.68;;;7.53;;
16820;SDS011;8527;49.740;6.604;2023-04-06T20:17:55;10.20;;;6.75;;
16820;SDS011;8527;49.740;6.604;2023-04-06T20:22:57;11.90;;;6.85;;
16820;SDS011;8527;49.740;6.604;2023-04-06T20:27:58;12.65;;;7.88;;
16820;SDS011;8527;49.740;6.604;2023-04-06T20:32:57;13.77;;;7.22;;
16820;SDS011;8527;49.740;6.604;2023-04-06T20:38:00;12.13;;;7.88;;
16820;SDS011;8527;49.740;6.604;2023-04-06T20:42:59;15.05;;;9.18;;
16820;SDS011;8527;49.740;6.604;2023-04-06T20:47:58;13.05;;;7.68;;
16820;SDS011;8527;49.740;6.604;2023-04-06T20:52:57;11.73;;;7.97;;
16820;SDS011;8527;49.740;6.604;2023-04-06T20:57:58;14.80;;;7.80;;
16820;SDS011;8527;49.740;6.604;2023-04-06T21:02:56;10.65;;;7.07;;
16820;SDS011;8527;49.740;6.604;2023-04-06T21:07:55;15.93;;;7.80;;
16820;SDS011;8527;49.740;6.604;2023-04-06T21:13:01;14.43;;;7.75;;
16820;SDS011;8527;49.740;6.604;2023-04-06T21:17:59;15.63;;;7.47;;
16820;SDS011;8527;49.740;6.604;2023-04-06T21:23:00;13.13;;;7.45;;
16820;SDS011;8527;49.740;6.604;2023-04-06T21:28:08;10.52;;;6.75;;
16820;SDS011;8527;49.740;6.604;2023-04-06T21:33:06;12.30;;;7.03;;
16820;SDS011;8527;49.740;6.604;2023-04-06T21:38:05;9.05;;;6.63;;
16820;SDS011;8527;49.740;6.604;2023-04-06T21:43:03;11.00;;;6.88;;
16820;SDS011;8527;49.740;6.604;2023-04-06T21:48:07;13.35;;;6.57;;
16820;SDS011;8527;49.740;6.604;2023-04-06T21:53:06;9.88;;;6.05;;
16820;SDS011;8527;49.740;6.604;2023-04-06T21:58:04;12.27;;;6.95;;
16820;SDS011;8527;49.740;6.604;2023-04-06T22:03:02;12.77;;;6.63;;
16820;SDS011;8527;49.740;6.604;2023-04-06T22:08:04;11.70;;;6.50;;
16820;SDS011;8527;49.740;6.604;2023-04-06T22:13:11;11.43;;;6.88;;
16820;SDS011;8527;49.740;6.604;2023-04-06T22:18:11;12.27;;;7.32;;
16820;SDS011;8527;49.740;6.604;2023-04-06T22:23:12;12.35;;;6.85;;
16820;SDS011;8527;49.740;6.604;2023-04-06T22:28:10;12.60;;;6.10;;
16820;SDS011;8527;49.740;6.604;2023-04-06T22:33:09;11.82;;;6.90;;
16820;SDS011;8527;49.740;6.604;2023-04-06T22:38:07;9.90;;;6.00;;
16820;SDS011;8527;49.740;6.604;2023-04-06T22:43:14;9.60;;;6.40;;
16820;SDS011;8527;49.740;6.604;2023-04-06T22:48:16;11.02;;;6.30;;
16820;SDS011;8527;49.740;6.604;2023-04-06T22:53:23;13.20;;;6.28;;
16820;SDS011;8527;49.740;6.604;2023-04-06T22:58:24;11.95;;;7.25;;
16820;SDS011;8527;49.740;6.604;2023-04-06T23:03:25;12.02;;;7.28;;
16820;SDS011;8527;49.740;6.604;2023-04-06T23:08:26;11.27;;;7.00;;
16820;SDS011;8527;49.740;6.604;2023-04-06T23:13:24;13.23;;;6.97;;
16820;SDS011;8527;49.740;6.604;2023-04-06T23:18:23;12.38;;;7.25;;
16820;SDS011;8527;49.740;6.604;2023-04-06T23:23:21;13.70;;;7.75;;
16820;SDS011;8527;49.740;6.604;2023-04-06T23:28:23;11.00;;;7.22;;
16820;SDS011;8527;49.740;6.604;2023-04-06T23:33:21;10.65;;;6.68;;
16820;SDS011;8527;49.740;6.604;2023-04-06T23:38:21;10.23;;;6.80;;
16820;SDS011;8527;49.740;6.604;2023-04-06T23:43:19;12.15;;;7.40;;
16820;SDS011;8527;49.740;6.604;2023-04-06T23:48:20;13.55;;;6.72;;
16820;SDS011;8527;49.740;6.604;2023-04-06T23:53:19;11.18;;;7.53;;
16820;SDS011;8527;49.740;6.604;2023-04-06T23:58:17;15.05;;;7.97;;
